createdAt,value
2023-03-08T00:00:43.078Z,5.65
2023-03-08T00:03:15.019Z,5.67
2023-03-08T00:05:43.732Z,5.64
2023-03-08T00:08:12.027Z,5.59
2023-03-08T00:10:41.179Z,5.58
2023-03-08T00:13:09.608Z,5.76
2023-03-08T00:15:38.335Z,5.86
2023-03-08T00:18:06.298Z,5.91
2023-03-08T00:20:34.857Z,5.86
2023-03-08T00:23:02.706Z,5.78
2023-03-08T00:25:31.094Z,5.64
2023-03-08T00:28:00.215Z,5.64
2023-03-08T00:30:34.692Z,5.58
2023-03-08T00:33:02.539Z,5.67
2023-03-08T00:35:32.664Z,5.56
2023-03-08T00:38:00.606Z,5.53
2023-03-08T00:40:28.532Z,5.52
2023-03-08T00:42:58.062Z,5.46
2023-03-08T00:45:27.481Z,5.48
2023-03-08T00:47:55.217Z,5.48
2023-03-08T00:50:23.243Z,5.61
2023-03-08T00:52:50.847Z,5.45
2023-03-08T00:55:18.458Z,5.39
2023-03-08T00:57:48.128Z,5.44
2023-03-08T01:00:17.384Z,5.58
2023-03-08T01:02:46.631Z,5.81
2023-03-08T01:05:15.013Z,5.71
2023-03-08T01:07:44.108Z,5.56
2023-03-08T01:10:13.477Z,5.62
2023-03-08T01:12:41.380Z,5.72
2023-03-08T01:15:09.879Z,5.77
2023-03-08T01:17:37.900Z,5.92
2023-03-08T01:20:08.489Z,5.72
2023-03-08T01:22:36.211Z,5.75
2023-03-08T01:25:04.182Z,5.80
2023-03-08T01:27:33.409Z,5.77
2023-03-08T01:30:01.384Z,5.56
2023-03-08T01:32:29.119Z,5.44
2023-03-08T01:35:01.960Z,5.52
2023-03-08T01:37:31.430Z,5.52
2023-03-08T01:39:59.622Z,5.58
2023-03-08T01:42:27.747Z,5.41
2023-03-08T01:44:57.680Z,5.32
2023-03-08T01:47:28.175Z,5.33
2023-03-08T01:50:28.176Z,5.23
2023-03-08T01:52:59.677Z,5.20
2023-03-08T01:55:27.663Z,5.08
2023-03-08T01:57:57.545Z,5.03
2023-03-08T02:00:26.954Z,5.01
2023-03-08T02:02:59.289Z,5.17
2023-03-08T02:05:27.902Z,5.05
2023-03-08T02:08:03.026Z,4.97
2023-03-08T02:10:36.597Z,4.91
2023-03-08T02:13:05.293Z,4.84
2023-03-08T02:15:34.681Z,4.90
2023-03-08T02:18:02.404Z,4.86
2023-03-08T02:20:33.392Z,4.74
2023-03-08T02:23:14.221Z,4.63
2023-03-08T02:25:43.586Z,4.56
2023-03-08T02:28:11.416Z,4.53
2023-03-08T02:30:39.438Z,4.43
2023-03-08T02:33:07.161Z,4.51
2023-03-08T02:35:38.555Z,4.51
2023-03-08T02:38:06.224Z,4.48
2023-03-08T02:40:35.811Z,4.52
2023-03-08T02:43:03.582Z,4.59
2023-03-08T02:45:32.309Z,4.63
2023-03-08T02:48:00.408Z,4.69
2023-03-08T02:50:28.233Z,4.74
2023-03-08T02:52:56.091Z,4.86
2023-03-08T02:55:23.971Z,4.80
2023-03-08T02:57:52.985Z,4.81
2023-03-08T03:00:22.508Z,4.88
2023-03-08T03:02:50.420Z,4.91
2023-03-08T03:05:18.441Z,4.95
2023-03-08T03:07:46.309Z,4.95
2023-03-08T03:10:18.673Z,4.93
2023-03-08T03:12:46.457Z,4.95
2023-03-08T03:15:19.781Z,4.92
2023-03-08T03:17:51.912Z,4.87
2023-03-08T03:20:19.758Z,4.80
2023-03-08T03:22:47.745Z,4.71
2023-03-08T03:25:16.514Z,4.65
2023-03-08T03:27:46.138Z,4.65
2023-03-08T03:30:14.542Z,4.66
2023-03-08T03:32:44.285Z,4.55
2023-03-08T03:35:13.687Z,4.50
2023-03-08T03:37:42.305Z,4.42
2023-03-08T03:40:14.029Z,4.43
2023-03-08T03:42:43.844Z,4.48
2023-03-08T03:45:14.632Z,4.45
2023-03-08T03:47:44.595Z,4.45
2023-03-08T03:50:12.973Z,4.44
2023-03-08T03:52:53.633Z,4.34
2023-03-08T03:55:21.380Z,4.45
2023-03-08T03:57:50.687Z,4.61
2023-03-08T04:00:19.853Z,4.76
2023-03-08T04:02:56.752Z,4.92
2023-03-08T04:05:26.942Z,4.86
2023-03-08T04:07:55.262Z,4.85
2023-03-08T04:10:27.846Z,4.85
2023-03-08T04:12:55.618Z,4.88
2023-03-08T04:15:23.826Z,4.84
2023-03-08T04:17:53.110Z,4.82
2023-03-08T04:20:24.654Z,4.91
2023-03-08T04:22:56.603Z,4.88
2023-03-08T04:25:31.378Z,4.88
2023-03-08T04:28:01.562Z,4.85
2023-03-08T04:30:31.337Z,4.82
2023-03-08T04:33:00.872Z,4.80
2023-03-08T04:35:37.706Z,4.88
2023-03-08T04:38:06.972Z,4.82
2023-03-08T04:40:54.846Z,4.81
2023-03-08T04:43:23.052Z,4.85
2023-03-08T04:45:51.227Z,4.77
2023-03-08T04:48:19.216Z,4.80
2023-03-08T04:50:55.292Z,4.82
2023-03-08T04:53:25.099Z,4.73
2023-03-08T04:55:53.472Z,4.79
2023-03-08T04:58:21.760Z,4.69
2023-03-08T05:00:50.292Z,4.65
2023-03-08T05:03:18.251Z,4.63
2023-03-08T05:05:47.565Z,4.55
2023-03-08T05:08:17.824Z,4.56
2023-03-08T05:10:49.142Z,4.48
2023-03-08T05:13:17.960Z,4.53
2023-03-08T05:15:46.553Z,4.58
2023-03-08T05:18:14.193Z,4.64
2023-03-08T05:20:41.908Z,4.63
2023-03-08T05:23:09.581Z,4.78
2023-03-08T05:25:45.063Z,4.61
2023-03-08T05:28:15.724Z,4.66
2023-03-08T05:30:44.689Z,4.67
2023-03-08T05:33:12.466Z,4.66
2023-03-08T05:35:41.575Z,4.71
2023-03-08T05:38:09.783Z,4.70
2023-03-08T05:40:39.125Z,4.62
2023-03-08T05:43:09.200Z,4.70
2023-03-08T05:45:37.968Z,4.83
2023-03-08T05:48:06.347Z,4.81
2023-03-08T05:50:39.080Z,4.87
2023-03-08T05:53:06.746Z,4.72
2023-03-08T05:55:35.806Z,4.80
2023-03-08T05:58:03.976Z,4.79
2023-03-08T06:00:35.285Z,4.60
2023-03-08T06:03:04.489Z,4.78
2023-03-08T06:05:36.967Z,4.71
2023-03-08T06:08:05.278Z,4.73
2023-03-08T06:10:34.983Z,4.81
2023-03-08T06:13:04.491Z,4.67
2023-03-08T06:15:34.070Z,4.60
2023-03-08T06:18:01.852Z,4.56
2023-03-08T06:20:31.502Z,4.90
2023-03-08T06:22:59.501Z,4.72
2023-03-08T06:25:27.456Z,4.62
2023-03-08T06:27:55.730Z,4.88
2023-03-08T06:30:40.243Z,4.72
2023-03-08T06:33:08.063Z,4.82
2023-03-08T06:35:36.660Z,4.93
2023-03-08T06:38:06.143Z,4.91
2023-03-08T06:40:35.960Z,4.86
2023-03-08T06:43:04.245Z,4.99
2023-03-08T06:45:35.096Z,5.08
2023-03-08T06:48:04.116Z,5.13
2023-03-08T06:50:33.798Z,5.13
2023-03-08T06:53:01.791Z,5.09
2023-03-08T06:55:45.193Z,5.18
2023-03-08T06:58:13.005Z,5.07
2023-03-08T07:00:41.895Z,5.09
2023-03-08T07:03:11.359Z,4.98
2023-03-08T07:05:39.426Z,5.20
2023-03-08T07:08:08.197Z,5.07
2023-03-08T07:10:36.654Z,5.01
2023-03-08T07:13:07.371Z,5.14
2023-03-08T07:15:35.858Z,5.33
2023-03-08T07:18:03.853Z,5.05
2023-03-08T07:20:34.727Z,5.40
2023-03-08T07:23:02.791Z,5.26
2023-03-08T07:25:31.542Z,5.13
2023-03-08T07:28:00.375Z,5.01
2023-03-08T07:30:28.564Z,4.80
2023-03-08T07:32:56.620Z,4.84
2023-03-08T07:35:24.354Z,4.54
2023-03-08T07:37:53.626Z,4.39
2023-03-08T07:40:21.840Z,4.43
2023-03-08T07:42:49.884Z,4.13
2023-03-08T07:45:39.408Z,3.98
2023-03-08T07:48:07.777Z,4.13
2023-03-08T07:50:35.635Z,4.16
2023-03-08T07:53:05.445Z,4.14
2023-03-08T07:55:34.962Z,4.09
2023-03-08T07:58:02.826Z,4.05
2023-03-08T08:00:31.955Z,4.16
2023-03-08T08:03:01.920Z,4.02
2023-03-08T08:05:30.036Z,3.83
2023-03-08T08:07:58.020Z,3.94
2023-03-08T08:10:27.104Z,3.78
2023-03-08T08:12:55.061Z,3.52
2023-03-08T08:15:25.222Z,3.63
2023-03-08T08:17:53.760Z,3.53
2023-03-08T08:20:21.769Z,3.51
2023-03-08T08:22:53.199Z,3.65
2023-03-08T08:25:22.194Z,3.37
2023-03-08T08:27:52.749Z,3.39
2023-03-08T08:30:20.919Z,3.28
2023-03-08T08:32:49.114Z,3.42
2023-03-08T08:35:17.205Z,3.61
2023-03-08T08:37:44.963Z,3.66
2023-03-08T08:40:13.633Z,3.38
2023-03-08T08:42:41.817Z,3.41
2023-03-08T08:45:12.212Z,3.32
2023-03-08T08:47:40.118Z,3.36
2023-03-08T08:50:08.644Z,3.46
2023-03-08T08:52:36.675Z,3.52
2023-03-08T08:55:04.826Z,3.61
2023-03-08T08:57:33.408Z,3.66
2023-03-08T09:00:01.348Z,3.60
2023-03-08T09:02:30.978Z,3.44
2023-03-08T09:04:58.983Z,3.31
2023-03-08T09:07:26.837Z,3.41
2023-03-08T09:09:55.662Z,3.28
2023-03-08T09:12:23.428Z,3.55
2023-03-08T09:14:51.352Z,3.41
2023-03-08T09:17:19.225Z,3.62
2023-03-08T09:19:48.444Z,3.57
2023-03-08T09:22:16.233Z,3.60
2023-03-08T09:24:45.822Z,3.51
2023-03-08T09:27:13.583Z,3.57
2023-03-08T09:29:41.468Z,3.93
2023-03-08T09:32:09.449Z,3.66
2023-03-08T09:34:37.453Z,3.84
2023-03-08T09:37:08.206Z,3.71
2023-03-08T09:39:36.148Z,3.57
2023-03-08T09:42:05.398Z,3.49
2023-03-08T09:44:54.215Z,3.58
2023-03-08T09:47:40.584Z,3.54
2023-03-08T09:50:22.100Z,3.47
2023-03-08T09:52:57.170Z,3.51
2023-03-08T09:55:30.514Z,3.44
2023-03-08T09:58:03.003Z,3.45
2023-03-08T10:00:34.211Z,3.65
2023-03-08T10:03:29.569Z,3.68
2023-03-08T10:06:05.284Z,3.45
2023-03-08T10:08:39.672Z,3.87
2023-03-08T10:11:17.504Z,3.72
2023-03-08T10:13:50.452Z,3.76
2023-03-08T10:16:24.722Z,3.80
2023-03-08T10:18:56.065Z,3.81
2023-03-08T10:21:25.725Z,3.75
2023-03-08T10:24:00.169Z,3.90
2023-03-08T10:26:28.901Z,3.93
2023-03-08T10:28:56.731Z,3.68
2023-03-08T10:31:27.291Z,3.81
2023-03-08T10:34:02.145Z,3.89
2023-03-08T10:36:30.201Z,3.93
2023-03-08T10:39:05.012Z,3.83
2023-03-08T10:41:38.140Z,3.92
2023-03-08T10:44:05.884Z,4.02
2023-03-08T10:46:34.370Z,3.90
2023-03-08T10:49:10.122Z,3.90
2023-03-08T10:51:37.945Z,3.93
2023-03-08T10:54:11.801Z,3.90
2023-03-08T10:56:45.035Z,3.88
2023-03-08T10:59:21.267Z,3.92
2023-03-08T11:01:51.257Z,3.81
2023-03-08T11:04:21.439Z,3.96
2023-03-08T11:06:49.732Z,4.02
2023-03-08T11:09:25.773Z,3.85
2023-03-08T11:11:53.938Z,3.83
2023-03-08T11:14:22.042Z,3.80
2023-03-08T11:16:56.238Z,4.14
2023-03-08T11:19:45.819Z,4.08
2023-03-08T11:22:24.787Z,3.96
2023-03-08T11:25:15.404Z,4.06
2023-03-08T11:27:59.150Z,4.12
2023-03-08T11:30:37.061Z,4.08
2023-03-08T11:33:46.618Z,4.19
2023-03-08T11:36:22.246Z,4.15
2023-03-08T11:38:57.949Z,4.39
2023-03-08T11:41:38.836Z,4.46
2023-03-08T11:44:27.841Z,4.39
2023-03-08T11:47:11.511Z,4.41
2023-03-08T11:49:54.681Z,4.40
2023-03-08T11:52:33.496Z,4.60
2023-03-08T11:55:20.579Z,4.48
2023-03-08T11:57:57.729Z,4.53
2023-03-08T12:00:30.983Z,4.60
2023-03-08T12:03:04.588Z,4.46
2023-03-08T12:05:36.497Z,4.59
2023-03-08T12:08:12.935Z,4.78
2023-03-08T12:10:48.157Z,4.97
2023-03-08T12:13:22.002Z,5.07
2023-03-08T12:15:55.107Z,5.24
2023-03-08T12:18:29.691Z,5.37
2023-03-08T12:21:07.570Z,5.41
2023-03-08T12:23:40.772Z,5.36
2023-03-08T12:26:14.950Z,5.39
2023-03-08T12:28:49.399Z,5.56
2023-03-08T12:31:27.907Z,5.75
2023-03-08T12:33:57.869Z,5.79
2023-03-08T12:36:38.514Z,5.86
2023-03-08T12:39:09.519Z,5.94
2023-03-08T12:41:37.917Z,6.19
2023-03-08T12:44:23.057Z,6.11
2023-03-08T12:47:02.960Z,6.23
2023-03-08T12:49:35.420Z,6.29
2023-03-08T12:52:06.270Z,6.34
2023-03-08T12:54:36.906Z,6.50
2023-03-08T12:57:17.100Z,6.55
2023-03-08T12:59:46.957Z,6.64
2023-03-08T13:02:34.306Z,6.65
2023-03-08T13:05:05.212Z,6.68
2023-03-08T13:07:39.386Z,6.76
2023-03-08T13:10:19.400Z,6.75
2023-03-08T13:13:35.072Z,6.99
2023-03-08T13:16:19.272Z,6.98
2023-03-08T13:18:49.282Z,7.00
2023-03-08T13:21:30.165Z,7.18
2023-03-08T13:24:03.789Z,7.32
2023-03-08T13:26:57.597Z,7.42
2023-03-08T13:29:31.617Z,7.63
2023-03-08T13:32:06.907Z,7.62
2023-03-08T13:34:36.205Z,7.66
2023-03-08T13:37:04.248Z,7.89
2023-03-08T13:39:34.572Z,8.13
2023-03-08T13:42:10.464Z,8.46
2023-03-08T13:44:38.590Z,8.58
2023-03-08T13:47:20.604Z,8.66
2023-03-08T13:49:51.873Z,8.86
2023-03-08T13:52:23.397Z,8.93
2023-03-08T13:54:54.006Z,8.81
2023-03-08T13:57:24.802Z,8.90
2023-03-08T13:59:54.704Z,9.00
2023-03-08T14:02:26.600Z,8.88
2023-03-08T14:04:54.847Z,8.95
2023-03-08T14:07:25.544Z,9.02
2023-03-08T14:09:53.412Z,9.02
2023-03-08T14:12:25.456Z,9.20
2023-03-08T14:14:57.193Z,9.21
2023-03-08T14:17:29.089Z,9.13
2023-03-08T14:19:58.877Z,9.09
2023-03-08T14:22:38.773Z,9.31
2023-03-08T14:25:21.237Z,9.27
2023-03-08T14:27:49.096Z,9.13
2023-03-08T14:30:19.346Z,9.27
2023-03-08T14:33:02.061Z,9.11
2023-03-08T14:35:32.164Z,9.04
2023-03-08T14:38:00.116Z,9.08
2023-03-08T14:40:31.298Z,9.05
2023-03-08T14:43:02.219Z,9.03
2023-03-08T14:45:35.683Z,9.29
2023-03-08T14:48:24.386Z,9.13
2023-03-08T14:50:55.223Z,9.19
2023-03-08T14:53:32.814Z,9.32
2023-03-08T14:56:03.600Z,9.31
2023-03-08T14:58:34.273Z,9.21
2023-03-08T15:01:03.524Z,9.30
2023-03-08T15:03:34.882Z,9.58
2023-03-08T15:06:08.924Z,9.79
2023-03-08T15:08:37.746Z,9.76
2023-03-08T15:11:07.674Z,9.59
2023-03-08T15:13:40.542Z,9.70
2023-03-08T15:16:14.744Z,9.63
2023-03-08T15:18:49.340Z,9.59
2023-03-08T15:21:23.256Z,9.56
2023-03-08T15:23:52.897Z,9.51
2023-03-08T15:26:26.676Z,9.57
2023-03-08T15:28:55.576Z,9.88
2023-03-08T15:31:25.022Z,9.98
2023-03-08T15:33:56.037Z,10.05
2023-03-08T15:36:28.210Z,10.31
2023-03-08T15:38:56.897Z,10.19
2023-03-08T15:41:28.399Z,10.05
2023-03-08T15:43:56.753Z,10.08
2023-03-08T15:46:28.853Z,9.97
2023-03-08T15:49:10.894Z,9.89
2023-03-08T15:51:45.737Z,9.73
2023-03-08T15:54:14.477Z,9.71
2023-03-08T15:56:42.457Z,9.72
2023-03-08T15:59:11.226Z,9.53
2023-03-08T16:01:41.889Z,9.50
2023-03-08T16:04:12.812Z,9.63
2023-03-08T16:06:43.886Z,9.85
2023-03-08T16:09:12.436Z,9.62
2023-03-08T16:11:41.873Z,9.54
2023-03-08T16:14:12.731Z,9.38
2023-03-08T16:16:45.505Z,9.71
2023-03-08T16:19:16.537Z,9.66
2023-03-08T16:21:47.862Z,9.46
2023-03-08T16:24:18.663Z,9.51
2023-03-08T16:26:46.775Z,9.37
2023-03-08T16:29:14.935Z,9.49
2023-03-08T16:31:43.742Z,9.49
2023-03-08T16:34:13.394Z,9.51
2023-03-08T16:36:43.078Z,9.34
2023-03-08T16:39:11.873Z,9.36
2023-03-08T16:41:42.781Z,9.22
2023-03-08T16:44:21.585Z,9.33
2023-03-08T16:46:50.886Z,9.18
2023-03-08T16:49:23.274Z,9.06
2023-03-08T16:51:53.072Z,9.08
2023-03-08T16:54:21.255Z,9.11
2023-03-08T16:56:50.182Z,9.08
2023-03-08T16:59:19.151Z,9.05
2023-03-08T17:01:50.016Z,9.05
2023-03-08T17:04:20.398Z,8.92
2023-03-08T17:06:51.765Z,8.97
2023-03-08T17:09:21.994Z,8.91
2023-03-08T17:11:50.440Z,8.91
2023-03-08T17:14:18.840Z,8.90
2023-03-08T17:16:47.126Z,8.76
2023-03-08T17:19:15.719Z,8.78
2023-03-08T17:21:46.091Z,8.81
2023-03-08T17:24:15.438Z,8.79
2023-03-08T17:26:47.892Z,8.72
2023-03-08T17:29:17.404Z,8.75
2023-03-08T17:31:46.629Z,8.82
2023-03-08T17:34:15.270Z,8.78
2023-03-08T17:36:47.640Z,8.74
2023-03-08T17:39:15.967Z,8.82
2023-03-08T17:41:46.183Z,8.81
2023-03-08T17:44:14.548Z,8.71
2023-03-08T17:46:42.892Z,8.75
2023-03-08T17:49:14.558Z,8.68
2023-03-08T17:51:42.964Z,8.60
2023-03-08T17:54:11.822Z,8.58
2023-03-08T17:56:41.197Z,8.57
2023-03-08T17:59:14.866Z,8.51
2023-03-08T18:01:44.034Z,8.50
2023-03-08T18:04:12.461Z,8.55
2023-03-08T18:06:43.613Z,8.48
2023-03-08T18:09:14.521Z,8.37
2023-03-08T18:11:43.346Z,8.36
2023-03-08T18:14:13.981Z,8.39
2023-03-08T18:16:45.004Z,8.39
2023-03-08T18:19:13.242Z,8.36
2023-03-08T18:21:54.992Z,8.32
2023-03-08T18:24:22.784Z,8.31
2023-03-08T18:26:51.469Z,8.28
2023-03-08T18:29:21.109Z,8.25
2023-03-08T18:31:49.012Z,8.25
2023-03-08T18:34:16.776Z,8.28
2023-03-08T18:36:44.442Z,8.23
2023-03-08T18:39:14.294Z,8.23
2023-03-08T18:41:42.490Z,8.21
2023-03-08T18:44:12.857Z,8.20
2023-03-08T18:46:42.133Z,8.20
2023-03-08T18:49:12.845Z,8.19
2023-03-08T18:51:42.571Z,8.13
2023-03-08T18:54:13.357Z,8.09
2023-03-08T18:56:41.125Z,8.07
2023-03-08T18:59:09.132Z,8.03
2023-03-08T19:01:38.647Z,8.00
2023-03-08T19:04:08.064Z,7.98
2023-03-08T19:06:37.332Z,8.00
2023-03-08T19:09:10.086Z,7.97
2023-03-08T19:11:46.672Z,7.96
2023-03-08T19:14:17.498Z,8.02
2023-03-08T19:16:46.579Z,8.09
2023-03-08T19:19:17.938Z,8.21
2023-03-08T19:21:48.379Z,8.35
2023-03-08T19:24:18.044Z,8.32
2023-03-08T19:26:51.324Z,8.35
2023-03-08T19:29:21.128Z,8.31
2023-03-08T19:31:52.021Z,8.32
2023-03-08T19:34:22.894Z,8.35
2023-03-08T19:36:52.914Z,8.37
2023-03-08T19:39:23.438Z,8.48
2023-03-08T19:41:53.546Z,8.26
2023-03-08T19:44:22.448Z,8.21
2023-03-08T19:46:51.137Z,8.17
2023-03-08T19:49:22.974Z,8.18
2023-03-08T19:51:52.285Z,8.17
2023-03-08T19:54:21.191Z,8.18
2023-03-08T19:56:49.293Z,8.13
2023-03-08T19:59:18.229Z,8.08
2023-03-08T20:01:46.804Z,8.13
2023-03-08T20:04:14.862Z,8.06
2023-03-08T20:06:47.033Z,8.04
2023-03-08T20:09:18.254Z,8.11
2023-03-08T20:11:47.984Z,8.14
2023-03-08T20:14:16.089Z,8.12
2023-03-08T20:16:45.004Z,8.08
2023-03-08T20:19:13.376Z,8.10
2023-03-08T20:21:45.331Z,8.17
2023-03-08T20:24:18.015Z,8.21
2023-03-08T20:26:47.954Z,8.24
2023-03-08T20:29:17.339Z,8.17
2023-03-08T20:31:50.744Z,8.39
2023-03-08T20:34:18.892Z,8.45
2023-03-08T20:36:51.416Z,8.46
2023-03-08T20:39:21.437Z,8.44
2023-03-08T20:41:49.552Z,8.33
2023-03-08T20:44:17.611Z,8.34
2023-03-08T20:46:46.302Z,8.32
2023-03-08T20:49:16.818Z,8.37
2023-03-08T20:51:47.721Z,8.34
2023-03-08T20:54:17.828Z,8.33
2023-03-08T20:56:46.576Z,8.34
2023-03-08T20:59:16.534Z,8.25
2023-03-08T21:01:45.074Z,8.20
2023-03-08T21:04:13.364Z,8.12
2023-03-08T21:06:41.873Z,8.10
2023-03-08T21:09:10.349Z,8.06
2023-03-08T21:11:40.457Z,8.09
2023-03-08T21:14:09.147Z,8.10
2023-03-08T21:16:37.356Z,8.08
2023-03-08T21:19:06.794Z,8.10
2023-03-08T21:21:37.663Z,8.09
2023-03-08T21:24:08.203Z,8.08
2023-03-08T21:26:39.457Z,8.16
2023-03-08T21:29:13.377Z,8.07
2023-03-08T21:31:43.558Z,8.06
2023-03-08T21:34:14.087Z,8.04
2023-03-08T21:36:42.088Z,7.98
2023-03-08T21:39:11.731Z,8.02
2023-03-08T21:41:41.896Z,8.00
2023-03-08T21:44:14.549Z,8.08
2023-03-08T21:46:43.182Z,8.09
2023-03-08T21:49:17.252Z,8.24
2023-03-08T21:51:45.296Z,8.24
2023-03-08T21:54:13.311Z,8.30
2023-03-08T21:56:42.045Z,8.32
2023-03-08T21:59:12.956Z,8.28
2023-03-08T22:01:43.021Z,8.33
2023-03-08T22:04:11.019Z,8.33
2023-03-08T22:06:40.755Z,8.40
2023-03-08T22:09:09.991Z,8.68
2023-03-08T22:11:42.733Z,8.65
2023-03-08T22:14:12.989Z,8.59
2023-03-08T22:16:40.879Z,8.55
2023-03-08T22:19:08.656Z,8.69
2023-03-08T22:21:37.262Z,8.55
2023-03-08T22:24:05.453Z,8.67
2023-03-08T22:26:34.119Z,8.72
2023-03-08T22:29:02.115Z,8.67
2023-03-08T22:31:31.616Z,8.68
2023-03-08T22:34:00.569Z,8.76
2023-03-08T22:36:28.506Z,8.74
2023-03-08T22:38:56.384Z,8.79
2023-03-08T22:41:27.443Z,8.74
2023-03-08T22:43:56.079Z,8.88
2023-03-08T22:46:26.179Z,8.78
2023-03-08T22:48:57.563Z,8.81
2023-03-08T22:51:27.686Z,8.74
2023-03-08T22:53:56.226Z,8.63
2023-03-08T22:56:26.165Z,8.65
2023-03-08T22:58:54.381Z,8.67
2023-03-08T23:01:24.708Z,8.57
2023-03-08T23:03:57.436Z,8.61
2023-03-08T23:06:28.007Z,8.75
2023-03-08T23:08:56.280Z,8.73
2023-03-08T23:11:24.270Z,8.76
2023-03-08T23:13:52.620Z,8.92
2023-03-08T23:16:20.500Z,8.92
2023-03-08T23:18:50.139Z,8.91
2023-03-08T23:21:21.861Z,8.99
2023-03-08T23:23:50.074Z,9.02
2023-03-08T23:26:20.981Z,9.11
2023-03-08T23:28:49.016Z,9.07
2023-03-08T23:31:18.530Z,9.09
2023-03-08T23:33:47.024Z,9.03
2023-03-08T23:36:17.592Z,9.10
2023-03-08T23:38:46.658Z,9.09
2023-03-08T23:41:15.150Z,9.05
2023-03-08T23:43:43.727Z,9.11
2023-03-08T23:46:13.319Z,9.34
2023-03-08T23:48:41.489Z,9.29
2023-03-08T23:51:11.838Z,9.21
2023-03-08T23:53:40.124Z,9.35
2023-03-08T23:56:18.356Z,9.48
2023-03-08T23:58:48.391Z,9.50
